createdAt,value
2023-05-12T00:01:23.577Z,5.50
2023-05-12T00:03:53.641Z,5.50
2023-05-12T00:06:21.323Z,5.40
2023-05-12T00:08:48.293Z,5.40
2023-05-12T00:11:15.319Z,5.30
2023-05-12T00:13:42.326Z,5.30
2023-05-12T00:16:09.436Z,5.30
2023-05-12T00:18:36.427Z,5.20
2023-05-12T00:21:03.465Z,5.20
2023-05-12T00:23:30.775Z,5.20
2023-05-12T00:25:57.819Z,5.10
2023-05-12T00:28:24.775Z,5.00
2023-05-12T00:30:51.842Z,5.00
2023-05-12T00:33:18.881Z,5.00
2023-05-12T00:35:45.866Z,4.90
2023-05-12T00:38:13.453Z,4.90
2023-05-12T00:40:41.129Z,4.90
2023-05-12T00:43:08.727Z,4.90
2023-05-12T00:45:36.069Z,4.90
2023-05-12T00:48:05.137Z,4.80
2023-05-12T00:50:32.508Z,4.80
2023-05-12T00:53:01.207Z,4.80
2023-05-12T00:55:30.890Z,4.70
2023-05-12T00:57:57.820Z,4.80
2023-05-12T01:00:24.830Z,4.70
2023-05-12T01:02:51.947Z,4.80
2023-05-12T01:05:19.073Z,4.70
2023-05-12T01:07:47.386Z,4.70
2023-05-12T01:10:21.904Z,4.70
2023-05-12T01:12:49.144Z,4.70
2023-05-12T01:15:16.966Z,4.70
2023-05-12T01:17:50.273Z,4.60
2023-05-12T01:20:22.195Z,4.60
2023-05-12T01:22:50.250Z,4.60
2023-05-12T01:25:19.542Z,4.60
2023-05-12T01:27:46.969Z,4.60
2023-05-12T01:30:17.899Z,4.70
2023-05-12T01:32:45.285Z,4.70
2023-05-12T01:35:12.273Z,4.80
2023-05-12T01:37:39.295Z,4.80
2023-05-12T01:40:06.862Z,4.80
2023-05-12T01:42:33.903Z,4.80
2023-05-12T01:45:01.156Z,4.80
2023-05-12T01:47:28.080Z,4.80
2023-05-12T01:49:55.010Z,4.80
2023-05-12T01:52:21.992Z,4.80
2023-05-12T01:54:49.186Z,4.70
2023-05-12T01:57:16.200Z,4.70
2023-05-12T01:59:43.205Z,4.60
2023-05-12T02:02:10.240Z,4.60
2023-05-12T02:04:37.696Z,4.50
2023-05-12T02:07:04.775Z,4.50
2023-05-12T02:09:31.724Z,4.50
2023-05-12T02:11:58.660Z,4.40
2023-05-12T02:14:25.669Z,4.40
2023-05-12T02:16:53.036Z,4.30
2023-05-12T02:19:21.089Z,4.30
2023-05-12T02:21:48.535Z,4.30
2023-05-12T02:24:16.798Z,4.30
2023-05-12T02:26:43.964Z,4.20
2023-05-12T02:29:12.005Z,4.30
2023-05-12T02:31:39.174Z,4.40
2023-05-12T02:34:06.927Z,4.50
2023-05-12T02:36:33.953Z,4.50
2023-05-12T02:39:00.893Z,4.50
2023-05-12T02:41:27.886Z,4.50
2023-05-12T02:43:55.116Z,4.50
2023-05-12T02:46:22.214Z,4.50
2023-05-12T02:48:49.154Z,4.60
2023-05-12T02:51:16.182Z,4.70
2023-05-12T02:53:43.121Z,5.00
2023-05-12T02:56:10.089Z,5.50
2023-05-12T02:58:37.818Z,6.20
2023-05-12T03:01:10.624Z,6.90
2023-05-12T03:03:38.827Z,7.60
2023-05-12T03:06:06.596Z,8.30
2023-05-12T03:08:33.651Z,9.10
2023-05-12T03:11:00.684Z,9.90
2023-05-12T03:13:27.640Z,10.60
2023-05-12T03:15:54.609Z,11.20
2023-05-12T03:18:21.582Z,11.70
2023-05-12T03:20:48.683Z,12.10
2023-05-12T03:23:15.599Z,12.50
2023-05-12T03:25:42.601Z,12.80
2023-05-12T03:28:09.713Z,13.30
2023-05-12T03:30:36.727Z,13.80
2023-05-12T03:33:03.862Z,14.10
2023-05-12T03:35:31.208Z,14.30
2023-05-12T03:37:58.124Z,14.60
2023-05-12T03:40:25.058Z,14.90
2023-05-12T03:42:52.080Z,15.10
2023-05-12T03:45:19.179Z,15.60
2023-05-12T03:47:46.225Z,16.00
2023-05-12T03:50:13.262Z,16.30
2023-05-12T03:52:41.576Z,16.40
2023-05-12T03:55:09.353Z,16.50
2023-05-12T03:57:36.825Z,16.50
2023-05-12T04:00:05.560Z,16.60
2023-05-12T04:02:32.703Z,16.70
2023-05-12T04:04:59.888Z,16.70
2023-05-12T04:07:27.286Z,16.70
2023-05-12T04:09:54.232Z,16.70
2023-05-12T04:12:21.149Z,16.90
2023-05-12T04:14:48.501Z,16.90
2023-05-12T04:17:15.534Z,16.90
2023-05-12T04:19:42.882Z,17.00
2023-05-12T04:22:09.883Z,17.10
2023-05-12T04:24:38.877Z,17.30
2023-05-12T04:27:07.810Z,17.60
2023-05-12T04:29:36.365Z,17.80
2023-05-12T04:32:04.099Z,18.00
2023-05-12T04:34:31.238Z,18.30
2023-05-12T04:36:58.178Z,18.40
2023-05-12T04:39:25.139Z,18.60
2023-05-12T04:41:52.081Z,18.60
2023-05-12T04:44:19.082Z,18.60
2023-05-12T04:46:46.012Z,18.80
2023-05-12T04:49:12.962Z,19.10
2023-05-12T04:51:42.428Z,19.50
2023-05-12T04:54:12.458Z,19.90
2023-05-12T04:56:39.500Z,20.40
2023-05-12T04:59:06.695Z,20.90
2023-05-12T05:01:33.785Z,21.20
2023-05-12T05:04:00.856Z,21.50
2023-05-12T05:06:28.390Z,21.80
2023-05-12T05:08:56.120Z,22.20
2023-05-12T05:11:23.706Z,22.60
2023-05-12T05:13:50.937Z,22.80
2023-05-12T05:16:17.957Z,23.20
2023-05-12T05:18:47.884Z,23.50
2023-05-12T05:21:15.243Z,23.70
2023-05-12T05:23:42.686Z,23.80
2023-05-12T05:26:10.005Z,23.90
2023-05-12T05:28:39.875Z,24.00
2023-05-12T05:31:07.075Z,24.00
2023-05-12T05:33:34.187Z,24.10
2023-05-12T05:36:01.271Z,24.20
2023-05-12T05:38:28.339Z,24.30
2023-05-12T05:40:55.347Z,24.30
2023-05-12T05:43:22.377Z,24.30
2023-05-12T05:45:50.144Z,24.30
2023-05-12T05:48:17.728Z,24.20
2023-05-12T05:50:45.033Z,24.10
2023-05-12T05:53:12.088Z,24.20
2023-05-12T05:55:39.116Z,24.30
2023-05-12T05:58:06.108Z,24.40
2023-05-12T06:00:33.312Z,24.40
2023-05-12T06:03:00.443Z,24.50
2023-05-12T06:05:27.687Z,24.80
2023-05-12T06:07:54.737Z,25.30
2023-05-12T06:10:22.044Z,25.60
2023-05-12T06:12:50.372Z,25.70
2023-05-12T06:15:17.978Z,25.80
2023-05-12T06:17:45.423Z,26.00
2023-05-12T06:20:13.574Z,26.10
2023-05-12T06:22:42.455Z,26.30
2023-05-12T06:25:09.622Z,26.50
2023-05-12T06:27:36.844Z,26.50
2023-05-12T06:30:04.466Z,26.20
2023-05-12T06:32:31.681Z,26.10
2023-05-12T06:34:59.060Z,25.90
2023-05-12T06:37:25.986Z,25.80
2023-05-12T06:39:52.947Z,25.70
2023-05-12T06:42:19.911Z,25.80
2023-05-12T06:44:46.927Z,26.00
2023-05-12T06:47:13.882Z,26.30
2023-05-12T06:49:42.179Z,26.70
2023-05-12T06:52:09.223Z,26.90
2023-05-12T06:54:36.152Z,26.90
2023-05-12T06:57:03.121Z,26.90
2023-05-12T06:59:30.938Z,26.90
2023-05-12T07:01:58.002Z,27.00
2023-05-12T07:04:26.906Z,27.20
2023-05-12T07:06:53.976Z,27.20
2023-05-12T07:09:20.946Z,27.30
2023-05-12T07:11:48.209Z,27.40
2023-05-12T07:14:15.627Z,27.30
2023-05-12T07:16:42.548Z,27.30
2023-05-12T07:19:09.778Z,27.30
2023-05-12T07:21:37.303Z,27.20
2023-05-12T07:24:06.235Z,27.20
2023-05-12T07:26:33.444Z,27.20
2023-05-12T07:29:01.036Z,27.00
2023-05-12T07:31:28.793Z,26.80
2023-05-12T07:33:56.159Z,26.70
2023-05-12T07:36:23.406Z,26.80
2023-05-12T07:38:50.405Z,26.80
2023-05-12T07:41:23.225Z,26.90
2023-05-12T07:43:50.199Z,27.00
2023-05-12T07:46:17.179Z,27.10
2023-05-12T07:48:44.220Z,27.10
2023-05-12T07:51:11.196Z,27.00
2023-05-12T07:53:38.186Z,26.80
2023-05-12T07:56:07.279Z,26.80
2023-05-12T07:58:34.214Z,26.50
2023-05-12T08:01:05.946Z,26.30
2023-05-12T08:03:33.808Z,26.20
2023-05-12T08:06:00.885Z,26.20
2023-05-12T08:08:27.952Z,26.20
2023-05-12T08:10:54.908Z,26.10
2023-05-12T08:13:22.298Z,26.10
2023-05-12T08:15:52.174Z,25.80
2023-05-12T08:18:19.194Z,25.60
2023-05-12T08:20:46.231Z,25.50
2023-05-12T08:23:13.260Z,25.60
2023-05-12T08:25:41.336Z,25.80
2023-05-12T08:28:08.313Z,25.80
2023-05-12T08:30:35.292Z,25.80
2023-05-12T08:33:03.572Z,25.50
2023-05-12T08:35:30.810Z,25.30
2023-05-12T08:37:59.662Z,25.10
2023-05-12T08:40:29.828Z,25.00
2023-05-12T08:43:26.835Z,24.80
2023-05-12T08:45:57.732Z,24.70
2023-05-12T08:48:29.384Z,24.60
2023-05-12T08:50:58.048Z,24.20
2023-05-12T08:53:27.993Z,24.00
2023-05-12T08:57:09.429Z,23.90
2023-05-12T08:58:45.767Z,24.00
2023-05-12T09:01:14.997Z,24.10
2023-05-12T09:03:42.302Z,24.00
2023-05-12T09:06:10.910Z,23.90
2023-05-12T09:08:39.300Z,24.00
2023-05-12T09:11:06.888Z,24.10
2023-05-12T09:13:48.555Z,24.20
2023-05-12T09:16:23.150Z,24.20
2023-05-12T09:18:58.164Z,24.30
2023-05-12T09:21:26.657Z,24.40
2023-05-12T09:23:54.567Z,24.50
2023-05-12T09:26:25.274Z,24.60
2023-05-12T09:28:56.091Z,24.70
2023-05-12T09:31:24.877Z,24.70
2023-05-12T09:33:52.570Z,24.50
2023-05-12T09:36:24.296Z,24.10
2023-05-12T09:39:05.420Z,23.80
2023-05-12T09:41:36.572Z,23.50
2023-05-12T09:44:04.198Z,23.40
2023-05-12T09:46:31.265Z,23.30
2023-05-12T09:48:59.110Z,23.30
2023-05-12T09:51:30.829Z,23.30
2023-05-12T09:53:58.484Z,23.50
2023-05-12T09:56:29.379Z,23.60
2023-05-12T09:58:57.642Z,23.70
2023-05-12T10:01:25.821Z,23.70
2023-05-12T10:03:55.048Z,23.50
2023-05-12T10:06:34.166Z,23.10
2023-05-12T10:09:42.202Z,22.80
2023-05-12T10:12:09.582Z,22.50
2023-05-12T10:14:37.642Z,22.20
2023-05-12T10:17:06.974Z,22.10
2023-05-12T10:19:36.101Z,22.00
2023-05-12T10:22:04.129Z,21.90
2023-05-12T10:24:31.294Z,21.80
2023-05-12T10:26:59.715Z,21.60
2023-05-12T10:29:30.058Z,21.50
2023-05-12T10:31:58.099Z,21.30
2023-05-12T10:34:34.032Z,21.10
2023-05-12T10:37:03.688Z,21.20
2023-05-12T10:39:33.446Z,21.30
2023-05-12T10:42:08.622Z,21.50
2023-05-12T10:44:36.651Z,21.70
2023-05-12T10:47:14.357Z,21.80
2023-05-12T10:49:43.290Z,22.00
2023-05-12T10:52:13.888Z,22.10
2023-05-12T10:54:44.880Z,22.10
2023-05-12T10:57:17.616Z,22.10
2023-05-12T10:59:53.437Z,22.20
2023-05-12T11:02:27.487Z,22.20
2023-05-12T11:05:05.310Z,22.00
2023-05-12T11:07:35.385Z,21.80
2023-05-12T11:10:05.898Z,21.60
2023-05-12T11:12:36.576Z,21.40
2023-05-12T11:15:05.308Z,21.40
2023-05-12T11:17:32.603Z,21.50
2023-05-12T11:20:01.323Z,21.50
2023-05-12T11:22:28.869Z,21.40
2023-05-12T11:24:55.956Z,21.30
2023-05-12T11:27:24.085Z,21.40
2023-05-12T11:29:59.407Z,21.40
2023-05-12T11:32:26.808Z,21.50
2023-05-12T11:34:53.930Z,21.60
2023-05-12T11:37:21.517Z,21.80
2023-05-12T11:39:48.823Z,22.10
2023-05-12T11:42:18.606Z,22.30
2023-05-12T11:44:50.615Z,22.50
2023-05-12T11:47:19.693Z,22.60
2023-05-12T11:49:52.224Z,22.50
2023-05-12T11:52:22.287Z,22.50
2023-05-12T11:54:56.972Z,22.40
2023-05-12T11:57:27.302Z,22.50
2023-05-12T11:59:59.153Z,22.70
2023-05-12T12:02:26.444Z,22.80
2023-05-12T12:04:53.748Z,22.80
2023-05-12T12:07:33.788Z,22.90
2023-05-12T12:10:13.129Z,23.00
2023-05-12T12:12:43.683Z,23.00
2023-05-12T12:15:11.658Z,22.90
2023-05-12T12:17:40.072Z,22.90
2023-05-12T12:20:08.458Z,23.00
2023-05-12T12:22:35.538Z,23.10
2023-05-12T12:25:03.218Z,23.10
2023-05-12T12:27:30.343Z,23.10
2023-05-12T12:29:57.419Z,23.10
2023-05-12T12:32:24.727Z,23.00
2023-05-12T12:34:52.069Z,23.00
2023-05-12T12:37:19.058Z,23.20
2023-05-12T12:39:47.875Z,23.10
2023-05-12T12:42:15.732Z,23.10
2023-05-12T12:44:42.978Z,23.20
2023-05-12T12:47:10.176Z,23.10
2023-05-12T12:49:40.419Z,23.00
2023-05-12T12:52:18.324Z,22.90
2023-05-12T12:54:45.284Z,22.90
2023-05-12T12:57:12.247Z,22.90
2023-05-12T12:59:39.201Z,22.90
2023-05-12T13:02:06.203Z,22.70
2023-05-12T13:04:33.142Z,22.70
2023-05-12T13:07:00.129Z,22.80
2023-05-12T13:09:27.223Z,22.80
2023-05-12T13:11:54.496Z,22.90
2023-05-12T13:14:21.690Z,22.90
2023-05-12T13:16:48.882Z,23.00
2023-05-12T13:19:15.910Z,22.80
2023-05-12T13:21:42.850Z,22.80
2023-05-12T13:24:09.873Z,22.80
2023-05-12T13:26:37.250Z,22.70
2023-05-12T13:29:04.414Z,22.60
2023-05-12T13:31:31.425Z,22.50
2023-05-12T13:33:58.435Z,22.40
2023-05-12T13:36:26.952Z,22.40
2023-05-12T13:38:53.894Z,22.30
2023-05-12T13:41:20.846Z,22.30
2023-05-12T13:43:48.335Z,22.40
2023-05-12T13:46:15.275Z,22.50
2023-05-12T13:48:42.207Z,22.60
2023-05-12T13:51:09.249Z,22.60
2023-05-12T13:53:38.606Z,22.50
2023-05-12T13:56:06.064Z,22.50
2023-05-12T13:58:33.074Z,22.50
2023-05-12T14:01:00.308Z,22.60
2023-05-12T14:03:27.248Z,22.60
2023-05-12T14:05:54.179Z,22.60
2023-05-12T14:08:21.104Z,22.60
2023-05-12T14:10:48.067Z,22.50
2023-05-12T14:13:14.990Z,22.40
2023-05-12T14:15:49.148Z,22.40
2023-05-12T14:18:17.280Z,22.40
2023-05-12T14:20:45.308Z,22.40
2023-05-12T14:23:12.386Z,22.40
2023-05-12T14:25:39.864Z,22.40
2023-05-12T14:28:07.082Z,22.30
2023-05-12T14:30:37.476Z,22.30
2023-05-12T14:33:04.746Z,22.20
2023-05-12T14:35:32.137Z,22.30
2023-05-12T14:37:59.114Z,22.30
2023-05-12T14:40:27.381Z,22.30
2023-05-12T14:42:55.281Z,22.40
2023-05-12T14:45:22.679Z,22.20
2023-05-12T14:47:49.884Z,22.10
2023-05-12T14:50:18.521Z,22.00
2023-05-12T14:52:45.881Z,22.00
2023-05-12T14:55:13.736Z,22.00
2023-05-12T14:57:44.898Z,22.00
2023-05-12T15:00:13.887Z,22.10
2023-05-12T15:02:42.338Z,22.00
2023-05-12T15:05:10.470Z,21.90
2023-05-12T15:07:38.024Z,21.90
2023-05-12T15:10:06.237Z,21.90
2023-05-12T15:12:33.924Z,21.80
2023-05-12T15:15:08.625Z,21.70
2023-05-12T15:17:35.857Z,21.60
2023-05-12T15:20:03.798Z,21.60
2023-05-12T15:22:31.626Z,21.60
2023-05-12T15:24:59.200Z,21.50
2023-05-12T15:27:26.855Z,21.40
2023-05-12T15:29:54.116Z,21.40
2023-05-12T15:32:21.173Z,21.40
2023-05-12T15:34:48.108Z,21.40
2023-05-12T15:37:15.305Z,21.30
2023-05-12T15:39:42.718Z,21.40
2023-05-12T15:42:10.699Z,21.40
2023-05-12T15:44:39.348Z,21.40
2023-05-12T15:47:06.739Z,21.40
2023-05-12T15:49:33.713Z,21.40
2023-05-12T15:52:00.844Z,21.40
2023-05-12T15:54:28.277Z,21.40
2023-05-12T15:56:55.192Z,21.20
2023-05-12T15:59:22.168Z,21.20
2023-05-12T16:01:49.111Z,21.10
2023-05-12T16:04:16.120Z,21.10
2023-05-12T16:06:43.145Z,21.10
2023-05-12T16:09:11.229Z,21.10
2023-05-12T16:11:38.244Z,21.10
2023-05-12T16:14:05.629Z,21.10
2023-05-12T16:16:32.603Z,21.00
2023-05-12T16:18:59.680Z,21.00
2023-05-12T16:21:26.697Z,21.00
2023-05-12T16:23:53.720Z,21.10
2023-05-12T16:26:20.665Z,21.10
2023-05-12T16:28:47.681Z,21.00
2023-05-12T16:31:18.105Z,21.00
2023-05-12T16:33:45.222Z,20.90
2023-05-12T16:36:13.095Z,20.90
2023-05-12T16:38:40.026Z,20.90
2023-05-12T16:41:07.748Z,20.70
2023-05-12T16:43:34.806Z,20.70
2023-05-12T16:46:03.301Z,20.60
2023-05-12T16:48:33.575Z,20.60
2023-05-12T16:51:05.511Z,20.50
2023-05-12T16:53:32.896Z,20.40
2023-05-12T16:56:00.032Z,20.30
2023-05-12T16:58:32.634Z,20.30
2023-05-12T17:01:02.502Z,20.20
2023-05-12T17:03:29.868Z,20.10
2023-05-12T17:05:57.189Z,20.10
2023-05-12T17:08:25.026Z,20.00
2023-05-12T17:10:52.044Z,19.90
2023-05-12T17:13:19.091Z,19.90
2023-05-12T17:15:46.062Z,19.80
2023-05-12T17:18:13.170Z,19.60
2023-05-12T17:20:40.828Z,19.50
2023-05-12T17:23:08.408Z,19.40
2023-05-12T17:25:36.769Z,19.30
2023-05-12T17:28:04.710Z,19.10
2023-05-12T17:30:32.129Z,19.00
2023-05-12T17:32:59.353Z,18.80
2023-05-12T17:35:26.445Z,18.60
2023-05-12T17:37:55.444Z,18.40
2023-05-12T17:40:23.128Z,18.30
2023-05-12T17:42:50.422Z,18.10
2023-05-12T17:45:17.840Z,17.90
2023-05-12T17:47:45.691Z,17.70
2023-05-12T17:50:15.021Z,17.50
2023-05-12T17:52:43.536Z,17.30
2023-05-12T17:55:10.911Z,17.10
2023-05-12T17:57:38.231Z,16.90
2023-05-12T18:00:15.835Z,16.70
2023-05-12T18:02:42.960Z,16.50
2023-05-12T18:05:11.290Z,16.30
2023-05-12T18:07:38.308Z,16.10
2023-05-12T18:10:09.392Z,16.00
2023-05-12T18:12:37.026Z,15.80
2023-05-12T18:15:05.434Z,15.70
2023-05-12T18:17:32.775Z,15.50
2023-05-12T18:19:59.928Z,15.40
2023-05-12T18:22:26.873Z,15.20
2023-05-12T18:24:53.876Z,15.00
2023-05-12T18:27:20.973Z,14.90
2023-05-12T18:29:47.953Z,14.70
2023-05-12T18:32:14.983Z,14.50
2023-05-12T18:34:45.573Z,14.30
2023-05-12T18:37:14.495Z,14.20
2023-05-12T18:39:44.951Z,14.10
2023-05-12T18:42:12.061Z,14.10
2023-05-12T18:44:41.325Z,14.00
2023-05-12T18:47:09.064Z,14.00
2023-05-12T18:49:36.762Z,14.00
2023-05-12T18:52:04.148Z,14.00
2023-05-12T18:54:31.268Z,14.10
2023-05-12T18:56:58.284Z,14.10
2023-05-12T18:59:25.313Z,14.00
2023-05-12T19:01:52.386Z,13.90
2023-05-12T19:04:19.846Z,13.70
2023-05-12T19:06:47.083Z,13.60
2023-05-12T19:09:14.354Z,13.50
2023-05-12T19:11:41.416Z,13.40
2023-05-12T19:14:08.807Z,13.40
2023-05-12T19:16:36.500Z,13.40
2023-05-12T19:19:03.559Z,13.30
2023-05-12T19:21:32.427Z,13.30
2023-05-12T19:23:59.529Z,13.30
2023-05-12T19:26:27.012Z,13.20
2023-05-12T19:28:54.050Z,13.00
2023-05-12T19:31:21.113Z,12.80
2023-05-12T19:33:48.074Z,12.50
2023-05-12T19:36:15.373Z,12.30
2023-05-12T19:38:44.304Z,12.10
2023-05-12T19:41:11.465Z,11.90
2023-05-12T19:43:38.513Z,11.80
2023-05-12T19:46:05.595Z,11.70
2023-05-12T19:48:32.670Z,11.60
2023-05-12T19:50:59.771Z,11.50
2023-05-12T19:53:26.937Z,11.50
2023-05-12T19:55:57.222Z,11.40
2023-05-12T19:58:24.267Z,11.40
2023-05-12T20:00:51.315Z,11.30
2023-05-12T20:03:19.261Z,11.20
2023-05-12T20:05:48.422Z,11.10
2023-05-12T20:08:15.801Z,11.10
2023-05-12T20:10:42.813Z,11.00
2023-05-12T20:13:09.807Z,11.00
2023-05-12T20:15:36.781Z,10.90
2023-05-12T20:18:03.979Z,10.90
2023-05-12T20:20:31.631Z,10.80
2023-05-12T20:22:58.728Z,10.80
2023-05-12T20:25:27.152Z,10.70
2023-05-12T20:27:55.815Z,10.70
2023-05-12T20:30:22.984Z,10.60
2023-05-12T20:32:51.189Z,10.50
2023-05-12T20:35:18.335Z,10.50
2023-05-12T20:37:45.393Z,10.40
2023-05-12T20:40:12.719Z,10.30
2023-05-12T20:42:39.880Z,10.20
2023-05-12T20:45:07.694Z,10.10
2023-05-12T20:47:35.712Z,10.00
2023-05-12T20:50:05.842Z,9.90
2023-05-12T20:52:42.340Z,9.90
2023-05-12T20:55:10.551Z,9.80
2023-05-12T20:57:38.025Z,9.70
2023-05-12T21:00:05.704Z,9.70
2023-05-12T21:02:32.835Z,9.70
2023-05-12T21:04:59.871Z,9.60
2023-05-12T21:07:26.948Z,9.60
2023-05-12T21:09:53.969Z,9.60
2023-05-12T21:12:21.094Z,9.50
2023-05-12T21:14:48.176Z,9.50
2023-05-12T21:17:16.790Z,9.40
2023-05-12T21:19:44.216Z,9.40
2023-05-12T21:22:11.608Z,9.30
2023-05-12T21:24:39.511Z,9.30
2023-05-12T21:27:07.342Z,9.20
2023-05-12T21:29:35.184Z,9.10
2023-05-12T21:32:02.440Z,9.10
2023-05-12T21:34:30.067Z,9.10
2023-05-12T21:36:57.072Z,9.10
2023-05-12T21:39:24.047Z,9.20
2023-05-12T21:41:51.034Z,9.20
2023-05-12T21:44:18.027Z,9.20
2023-05-12T21:46:45.131Z,9.10
2023-05-12T21:49:12.206Z,9.10
2023-05-12T21:51:39.282Z,9.10
2023-05-12T21:54:06.269Z,9.00
2023-05-12T21:56:33.426Z,8.90
2023-05-12T21:59:00.456Z,8.80
2023-05-12T22:01:27.492Z,8.80
2023-05-12T22:03:54.579Z,8.70
2023-05-12T22:06:21.591Z,8.70
2023-05-12T22:08:48.515Z,8.70
2023-05-12T22:11:15.739Z,8.60
2023-05-12T22:13:42.713Z,8.70
2023-05-12T22:16:09.669Z,8.70
2023-05-12T22:18:37.795Z,8.60
2023-05-12T22:21:04.778Z,8.50
2023-05-12T22:23:31.952Z,8.50
2023-05-12T22:28:39.258Z,8.30
2023-05-12T22:31:06.389Z,8.20
2023-05-12T22:33:34.649Z,8.10
2023-05-12T22:36:01.602Z,8.00
2023-05-12T22:38:28.594Z,8.00
2023-05-12T22:40:55.712Z,7.90
2023-05-12T22:43:22.840Z,7.80
2023-05-12T22:45:52.719Z,7.80
2023-05-12T22:48:20.055Z,7.70
2023-05-12T22:50:47.229Z,7.60
2023-05-12T22:53:14.723Z,7.60
2023-05-12T22:55:42.084Z,7.50
2023-05-12T22:58:10.381Z,7.50
2023-05-12T23:00:37.722Z,7.40
2023-05-12T23:03:04.754Z,7.40
2023-05-12T23:05:31.727Z,7.30
2023-05-12T23:07:58.676Z,7.30
2023-05-12T23:10:25.881Z,7.20
2023-05-12T23:12:52.849Z,7.20
2023-05-12T23:15:20.666Z,7.20
2023-05-12T23:17:47.762Z,7.10
2023-05-12T23:20:14.814Z,7.10
2023-05-12T23:22:41.760Z,7.10
2023-05-12T23:25:09.496Z,7.10
2023-05-12T23:27:37.338Z,7.10
2023-05-12T23:30:05.032Z,7.10
2023-05-12T23:32:32.363Z,7.10
2023-05-12T23:34:59.431Z,7.00
2023-05-12T23:37:26.811Z,7.00
2023-05-12T23:39:53.749Z,7.00
2023-05-12T23:42:20.657Z,7.00
2023-05-12T23:44:47.590Z,7.00
2023-05-12T23:47:14.496Z,6.90
2023-05-12T23:49:41.416Z,6.90
2023-05-12T23:52:08.499Z,6.80
2023-05-12T23:54:35.435Z,6.90
2023-05-12T23:57:03.159Z,6.90
2023-05-12T23:59:30.283Z,6.80
